Weather reports worldwide

Advertisment
St-Raphael, France (7680): temperature & dewpoint: 08.12.2019 06:00:00 - 14.12.2019 06:00:00 (CET)St-Raphael, France (7680): wind speed & gusts: 08.12.2019 06:00:00 - 14.12.2019 06:00:00 (CET)St-Raphael, France (7680): wind direction: 08.12.2019 06:00:00 - 14.12.2019 06:00:00 (CET)St-Raphael, France (7680): precipitation: 08.12.2019 06:00:00 - 14.12.2019 06:00:00 (CET)
Date & Time tt [°C] td [°C] ff [km/h] ff [kn] fx [km/h] fx [kn] dd rr [mm]
14.12.2019 06:00:00 - - - - - - - -
14.12.2019 05:00:00 9,5 4,9 28 15 55 30 W 0,0
14.12.2019 04:00:00 9,2 4,4 28 15 52 28 W 0,0
14.12.2019 03:00:00 9,4 3,6 26 14 55 30 W 0,0
14.12.2019 02:00:00 9,4 3,1 28 15 63 34 W 0,0
14.12.2019 01:00:00 10,1 2,7 34 18 68 37 W -
14.12.2019 00:00:00 10,6 2,2 37 20 65 35 W 0,0
13.12.2019 23:00:00 10,8 1,3 29 16 55 30 W 0,0
13.12.2019 22:00:00 11,7 0,1 31 17 61 33 W 0,0
13.12.2019 21:00:00 11,0 -0,8 16 9 44 24 W 0,0
13.12.2019 20:00:00 10,4 0,1 16 9 59 32 W 0,0
13.12.2019 19:00:00 11,4 0,8 28 15 55 30 W -
13.12.2019 18:00:00 11,4 1,9 31 17 59 32 W 0,0
13.12.2019 17:00:00 11,4 0,8 26 14 63 34 WNW 0,0
13.12.2019 16:00:00 12,5 2,3 31 17 70 38 W 0,0
13.12.2019 15:00:00 13,2 2,1 34 18 72 39 W 0,0
13.12.2019 14:00:00 13,4 2,9 34 18 63 34 W 0,0
13.12.2019 13:00:00 13,5 5,9 31 17 65 35 W -
13.12.2019 12:00:00 13,0 7,4 35 19 65 35 W 0,0
13.12.2019 11:00:00 11,4 8,3 24 13 46 25 WNW 0,2
13.12.2019 10:00:00 6,8 6,2 9 5 26 14 W 0,8
13.12.2019 09:00:00 5,9 5,5 8 4 16 9 NNW 0,8
13.12.2019 08:00:00 5,6 5,0 5 3 13 7 NNW 1,0
13.12.2019 07:00:00 5,6 4,7 8 4 15 8 NNW -
13.12.2019 06:00:00 5,3 4,4 8 4 16 9 NW 0,2
13.12.2019 05:00:00 5,5 4,5 9 5 22 12 NNW 0,0
13.12.2019 04:00:00 5,0 4,0 8 4 18 10 NNW 0,0
13.12.2019 03:00:00 4,9 3,9 9 5 22 12 NW 0,2
13.12.2019 02:00:00 5,0 4,0 8 4 16 9 NW 0,0
13.12.2019 01:00:00 5,0 3,3 8 4 16 9 NW -
13.12.2019 00:00:00 5,1 2,9 8 4 21 11 NW 1,0
12.12.2019 23:00:00 5,7 2,0 4 2 13 7 NNE 0,2
12.12.2019 22:00:00 7,0 0,0 4 2 21 11 NE 0,0
12.12.2019 21:00:00 7,3 -0,4 8 4 26 14 WNW 0,0
12.12.2019 20:00:00 7,3 -0,7 15 8 37 20 W 0,0
12.12.2019 19:00:00 7,7 -0,8 22 12 37 20 W -
12.12.2019 18:00:00 7,9 -1,1 15 8 42 23 WNW 0,0
12.12.2019 17:00:00 9,0 -1,4 22 12 55 30 W 0,0
12.12.2019 16:00:00 10,3 -1,4 34 18 55 30 W 0,0
12.12.2019 15:00:00 10,9 -2,2 34 18 63 34 W 0,0
12.12.2019 14:00:00 10,5 -2,6 41 22 74 40 W 0,0
12.12.2019 13:00:00 10,7 -1,7 22 12 57 31 WNW -
12.12.2019 12:00:00 10,4 -1,3 18 10 55 30 WNW 0,0
12.12.2019 11:00:00 7,8 -2,0 28 15 87 47 W 0,0
12.12.2019 10:00:00 7,7 -1,5 37 20 80 43 W 0,0
12.12.2019 09:00:00 6,9 -1,5 39 21 72 39 W 0,0
12.12.2019 08:00:00 7,0 -0,9 41 22 78 42 W 0,0
12.12.2019 07:00:00 6,8 0,7 39 21 74 40 W -
12.12.2019 06:00:00 7,1 1,0 35 19 72 39 W 0,0
12.12.2019 05:00:00 7,6 0,8 31 17 59 32 W 0,0
12.12.2019 04:00:00 7,5 0,9 29 16 59 32 W 0,0
12.12.2019 03:00:00 7,5 0,9 31 17 68 37 W 0,0
12.12.2019 02:00:00 7,7 0,9 34 18 63 34 W 0,0
12.12.2019 01:00:00 7,8 1,4 29 16 61 33 W -
12.12.2019 00:00:00 7,8 2,5 24 13 65 35 W 0,0
11.12.2019 23:00:00 7,9 3,0 34 18 76 41 W 0,0
11.12.2019 22:00:00 8,4 3,0 39 21 74 40 W 0,0
11.12.2019 21:00:00 9,0 2,3 26 14 65 35 W 0,0
11.12.2019 20:00:00 9,7 2,3 37 20 67 36 W 0,0
11.12.2019 19:00:00 9,5 2,3 16 9 34 18 W -
11.12.2019 18:00:00 10,0 3,3 11 6 28 15 W 0,0
11.12.2019 17:00:00 9,0 4,4 4 2 13 7 NNW 0,0
11.12.2019 16:00:00 9,3 4,3 4 2 13 7 NW 0,0
11.12.2019 15:00:00 10,2 4,3 5 3 13 7 NW 0,0
11.12.2019 14:00:00 10,9 4,1 5 3 16 9 NNW 0,0
11.12.2019 13:00:00 9,4 2,9 8 4 16 9 NNW -
11.12.2019 12:00:00 7,6 1,6 8 4 22 12 NNW 0,0
11.12.2019 11:00:00 6,6 1,1 9 5 22 12 NW 0,0
11.12.2019 10:00:00 4,9 0,1 9 5 24 13 NW 0,0
11.12.2019 09:00:00 3,7 -0,5 8 4 22 12 NNW 0,0
11.12.2019 08:00:00 2,3 -1,5 11 6 26 14 NW 0,0
11.12.2019 07:00:00 2,2 -1,6 11 6 24 13 NW -
11.12.2019 06:00:00 2,4 -1,6 13 7 26 14 NW 0,0
11.12.2019 05:00:00 2,5 -1,5 11 6 24 13 NW 0,0
11.12.2019 04:00:00 2,7 -1,5 8 4 24 13 NW 0,0
11.12.2019 03:00:00 3,3 -1,3 11 6 22 12 NW 0,0
11.12.2019 02:00:00 3,8 -1,2 5 3 22 12 NNW 0,0
11.12.2019 01:00:00 4,1 -1,1 9 5 21 11 NW -
11.12.2019 00:00:00 4,5 -0,9 11 6 22 12 NW 0,0
10.12.2019 23:00:00 4,9 -0,5 9 5 18 10 NW 0,0
10.12.2019 22:00:00 5,3 -0,3 9 5 18 10 NW 0,0
10.12.2019 21:00:00 5,7 -0,2 4 2 9 5 N 0,0
10.12.2019 20:00:00 7,7 -0,3 5 3 16 9 N 0,0
10.12.2019 19:00:00 8,1 0,3 5 3 11 6 N -
10.12.2019 18:00:00 8,4 0,4 4 2 8 4 WSW 0,0
10.12.2019 17:00:00 11,4 2,1 4 2 8 4 SW 0,0
10.12.2019 16:00:00 14,8 3,3 4 2 21 11 SSW 0,0
10.12.2019 15:00:00 16,2 0,7 11 6 22 12 W 0,0
10.12.2019 14:00:00 17,3 -0,5 4 2 18 10 WNW 0,0
10.12.2019 13:00:00 16,0 -1,1 11 6 26 14 WNW -
10.12.2019 12:00:00 14,7 -0,2 13 7 31 17 WNW 0,0
10.12.2019 11:00:00 12,9 -0,1 15 8 28 15 NW 0,0
10.12.2019 10:00:00 9,6 0,5 9 5 28 15 NNW 0,0
10.12.2019 09:00:00 8,8 -1,1 11 6 28 15 NNW 0,0
10.12.2019 08:00:00 8,4 -1,4 13 7 24 13 NW 0,0
10.12.2019 07:00:00 9,0 -2,3 8 4 34 18 NNW -
10.12.2019 06:00:00 9,9 -2,1 15 8 37 20 WNW 0,0
10.12.2019 05:00:00 9,6 -1,8 16 9 39 21 WNW 0,0
10.12.2019 04:00:00 9,7 -1,4 15 8 29 16 WNW 0,0
10.12.2019 03:00:00 10,1 -1,0 16 9 31 17 W 0,0
10.12.2019 02:00:00 9,8 -0,1 16 9 50 27 WNW 0,0
10.12.2019 01:00:00 10,2 0,2 26 14 54 29 WNW -
10.12.2019 00:00:00 10,1 0,9 29 16 54 29 W 0,0
09.12.2019 23:00:00 11,0 0,7 29 16 54 29 WNW 0,0
09.12.2019 22:00:00 10,9 1,9 35 19 67 36 W 0,0
09.12.2019 21:00:00 11,6 1,8 34 18 63 34 W 0,0
09.12.2019 20:00:00 12,0 1,6 29 16 61 33 W 0,0
09.12.2019 19:00:00 12,3 1,9 29 16 48 26 W -
09.12.2019 18:00:00 12,3 1,9 16 9 42 23 WNW 0,0
09.12.2019 17:00:00 12,9 2,1 24 13 44 24 W 0,0
09.12.2019 16:00:00 13,6 3,4 26 14 61 33 W 0,0
09.12.2019 15:00:00 14,5 3,6 35 19 70 38 W 0,0
09.12.2019 14:00:00 15,2 4,5 26 14 55 30 W 0,0
09.12.2019 13:00:00 14,5 4,5 31 17 59 32 W -
09.12.2019 12:00:00 13,9 5,5 28 15 63 34 W 0,0
09.12.2019 11:00:00 12,6 5,3 35 19 67 36 W 0,0
09.12.2019 10:00:00 11,4 4,6 34 18 59 32 W 0,0
09.12.2019 09:00:00 10,6 4,5 28 15 54 29 W 0,0
09.12.2019 08:00:00 10,6 4,7 22 12 41 22 W 0,0
09.12.2019 07:00:00 10,9 6,2 21 11 48 26 W -
09.12.2019 06:00:00 11,2 7,5 29 16 61 33 W 0,0
09.12.2019 05:00:00 11,4 8,1 35 19 72 39 W 0,0
09.12.2019 04:00:00 12,3 8,0 29 16 52 28 W 0,0
09.12.2019 03:00:00 12,5 7,8 28 15 48 26 W 0,0
09.12.2019 02:00:00 12,6 6,8 15 8 42 23 W 0,0
09.12.2019 01:00:00 12,6 6,4 16 9 39 21 WNW -
09.12.2019 00:00:00 11,1 6,0 9 5 26 14 WNW 0,0
08.12.2019 23:00:00 11,4 6,1 18 10 44 24 WNW 0,0
08.12.2019 22:00:00 11,2 5,7 18 10 41 22 W 0,0
08.12.2019 21:00:00 11,2 5,5 18 10 42 23 W 0,0
08.12.2019 20:00:00 11,5 5,8 15 8 29 16 W 0,0
08.12.2019 19:00:00 7,6 6,2 4 2 9 5 NW -
08.12.2019 18:00:00 8,6 7,1 2 1 5 3 W 0,0
08.12.2019 17:00:00 11,8 9,0 2 1 4 2 E 0,0
08.12.2019 16:00:00 13,6 9,2 2 1 13 7 SSE 0,0
08.12.2019 15:00:00 15,3 9,2 8 4 13 7 SSE 0,0
08.12.2019 14:00:00 15,0 7,8 8 4 11 6 W 0,0
08.12.2019 13:00:00 14,4 7,2 5 3 15 8 NNW -
08.12.2019 12:00:00 12,2 5,8 11 6 18 10 WNW 0,0
08.12.2019 11:00:00 10,4 4,5 9 5 24 13 NNW 0,0
08.12.2019 10:00:00 7,9 4,1 15 8 24 13 NW 0,0
08.12.2019 09:00:00 6,4 3,5 9 5 22 12 NNW 0,0
08.12.2019 08:00:00 5,7 3,4 11 6 26 14 NNW 0,0
08.12.2019 07:00:00 5,7 3,4 11 6 22 12 NW -
08.12.2019 06:00:00 6,7 4,2 11 6 24 13 NNW 0,0

tt = temperature
td = dewpoint
ff = wind speed
fx = gusts
dd = wind direction
rr = precipitation

Next stations